F/V Cote D'ambre — FPEY — position and weather

sailwx.info

Track history (hours):
 
Tides and Currents Weather Stations Pressure Air Temp Water Temp Dewpoint Dewpoint Depression Visibility Wind Speed Wind Dir Waves Ship Positions

F/V Cote D'ambre

Last reported at 2015-May-04 09:29 UTC. Time now 2015-May-05 20:21 UTC.
Position N 47°23' W 003°31'.

Length 16 m; draft 4 m.

Type: Fishing. MMSI: 227128800.

Date/timePositionNaut miles runAvg speedWind from/ knotsBaromVisibWave heightAir tempDewpointWater temp
2015-May-04 09:29N 47°23' W 003°31'5 5.7
2015-May-04 08:33N 47°28' W 003°34'2 0.9
2015-May-04 06:11N 47°29' W 003°31'2 3.6
2015-May-04 05:33N 47°30' W 003°28'7 6.8
2015-May-04 04:33N 47°36' W 003°22'8 0.2
2015-May-02 02:21N 47°44' W 003°22'0 0.2
2015-May-02 01:31N 47°44' W 003°22'0 0.0
2015-May-02 00:31N 47°44' W 003°22'6 6.5
2015-May-01 23:33N 47°38' W 003°22'9 8.8
2015-May-01 22:34N 47°29' W 003°24'4 0.1
2015-Apr-30 17:10N 47°27' W 003°28'5 8.7
2015-Apr-30 16:32N 47°32' W 003°25'9 8.7
2015-Apr-30 15:33N 47°40' W 003°22'4 3.5
2015-Apr-30 14:31N 47°44' W 003°22'0 0.0
2015-Apr-30 01:32N 47°44' W 003°22'4 4.4
2015-Apr-30 00:33N 47°39' W 003°22'8 7.8
2015-Apr-29 23:33N 47°32' W 003°22'8 7.6
2015-Apr-29 22:34N 47°24' W 003°22'3 0.1
2015-Apr-29 03:30N 47°27' W 003°23'9 9.0
2015-Apr-29 02:33N 47°35' W 003°22'8 7.9
2015-Apr-29 01:31N 47°44' W 003°22'3 3.2
2015-Apr-29 00:32N 47°41' W 003°22'8 8.5
2015-Apr-28 23:33N 47°32' W 003°24'8 8.2
2015-Apr-28 22:32N 47°24' W 003°26'1 0.1
2015-Apr-28 04:32N 47°25' W 003°25'9 8.8
2015-Apr-28 03:33N 47°34' W 003°23'9 9.2
2015-Apr-28 02:33N 47°43' W 003°22'1 0.8
2015-Apr-28 01:33N 47°42' W 003°22'8 7.9
2015-Apr-28 00:33N 47°34' W 003°23'8 7.7
2015-Apr-27 23:33N 47°27' W 003°24'1 0.1
2015-Apr-27 03:18N 47°27' W 003°26'6 8.6
2015-Apr-27 02:33N 47°34' W 003°24'9 8.8
2015-Apr-27 01:33N 47°42' W 003°22'2 0.0
2015-Apr-25 02:33N 47°44' W 003°22'0 0.0
2015-Apr-25 01:31N 47°44' W 003°22'0 0.0
2015-Apr-25 00:31N 47°44' W 003°22'0 0.5
2015-Apr-24 23:33N 47°43' W 003°22'8 8.3
2015-Apr-24 22:33N 47°35' W 003°22'9 8.6
2015-Apr-24 21:33N 47°27' W 003°26'  
Track history (hours):
 
Tides and Currents Weather Stations Pressure Air Temp Water Temp Dewpoint Dewpoint Depression Visibility Wind Speed Wind Dir Waves Ship Positions

F/V Cote D'ambre

Last reported at 2015-May-04 09:29 UTC. Time now 2015-May-05 20:21 UTC.
Position N 47°23' W 003°31'.

Length 16 m; draft 4 m.

Type: Fishing. MMSI: 227128800.

Date/timePositionNaut miles runAvg speedWind from/ knotsBaromVisibWave heightAir tempDewpointWater temp
2015-May-04 09:29N 47°23' W 003°31'5 5.7
2015-May-04 08:33N 47°28' W 003°34'2 0.9
2015-May-04 06:11N 47°29' W 003°31'2 3.6
2015-May-04 05:33N 47°30' W 003°28'7 6.8
2015-May-04 04:33N 47°36' W 003°22'8 0.2
2015-May-02 02:21N 47°44' W 003°22'0 0.2
2015-May-02 01:31N 47°44' W 003°22'0 0.0
2015-May-02 00:31N 47°44' W 003°22'6 6.5
2015-May-01 23:33N 47°38' W 003°22'9 8.8
2015-May-01 22:34N 47°29' W 003°24'4 0.1
2015-Apr-30 17:10N 47°27' W 003°28'5 8.7
2015-Apr-30 16:32N 47°32' W 003°25'9 8.7
2015-Apr-30 15:33N 47°40' W 003°22'4 3.5
2015-Apr-30 14:31N 47°44' W 003°22'0 0.0
2015-Apr-30 01:32N 47°44' W 003°22'4 4.4
2015-Apr-30 00:33N 47°39' W 003°22'8 7.8
2015-Apr-29 23:33N 47°32' W 003°22'8 7.6
2015-Apr-29 22:34N 47°24' W 003°22'3 0.1
2015-Apr-29 03:30N 47°27' W 003°23'9 9.0
2015-Apr-29 02:33N 47°35' W 003°22'8 7.9
2015-Apr-29 01:31N 47°44' W 003°22'3 3.2
2015-Apr-29 00:32N 47°41' W 003°22'8 8.5
2015-Apr-28 23:33N 47°32' W 003°24'8 8.2
2015-Apr-28 22:32N 47°24' W 003°26'1 0.1
2015-Apr-28 04:32N 47°25' W 003°25'9 8.8
2015-Apr-28 03:33N 47°34' W 003°23'9 9.2
2015-Apr-28 02:33N 47°43' W 003°22'1 0.8
2015-Apr-28 01:33N 47°42' W 003°22'8 7.9
2015-Apr-28 00:33N 47°34' W 003°23'8 7.7
2015-Apr-27 23:33N 47°27' W 003°24'1 0.1
2015-Apr-27 03:18N 47°27' W 003°26'6 8.6
2015-Apr-27 02:33N 47°34' W 003°24'9 8.8
2015-Apr-27 01:33N 47°42' W 003°22'2 0.0
2015-Apr-25 02:33N 47°44' W 003°22'0 0.0
2015-Apr-25 01:31N 47°44' W 003°22'0 0.0
2015-Apr-25 00:31N 47°44' W 003°22'0 0.5
2015-Apr-24 23:33N 47°43' W 003°22'8 8.3
2015-Apr-24 22:33N 47°35' W 003°22'9 8.6
2015-Apr-24 21:33N 47°27' W 003°26'  

Dump ship's entire track history